Terminal Aerodrome Forecast
Issued by NWS

Home | Current Version | Previous Version | Text Only | Print | Product List | Glossary On
Versions: 1 2 3 4 5 6 7 8 9 10 11 12 13 14 15 16 17
000
FTUS46 KMTR 190500
TAFMRY
TAF
KMRY 190535Z 1906/2006 21005KT P6SM OVC015
     FM190800 27003KT P6SM SCT009 OVC010
      TEMPO 1912/1916 2SM BR OVC005
     FM191700 29007KT P6SM SCT015
     FM200400 24004KT P6SM BKN010=

USA.gov is the U.S. government's official web portal to all federal, state and local government web resources and services.